メインページ
METAR-TAF:

METAR-TAF

空港 :

デンバー国際空港

デンバー, コロラド州, アメリカ合衆国

緯度: 39-49-58N, 経度: 104-39-27W, 海抜: 1655m

現時点の気象観測

当レポートは29分前の13:53(UTC)に作成
西の風 7kt
気温 22°C
湿度 50%
気圧 1021 hPa
視程: 16.1km
高度14000ftの雲はほとんどない
高度18000ftの千切れ雲あり
高度22000ftの千切れ雲あり

METAR: KDEN 201353Z 26007KT 10SM FEW140 BKN180 BKN220 22/11 A3014 RMK AO2 SLP111 T02220106

時間: 08:22 (14:22 UTC)

予報

当レポートは8分前の14:14(UTC)に作成
予報は20日の 14時(UTC)から 21日の 18時(UTC)まで有効
西の風 9kt
視程: 10km
高度12000ftの雲はほとんどない
高度18000ftの千切れ雲あり
20日の 1600時(UTC)から
の風 8kt
視程: 10km
高度12000ftの雲はほとんどない
高度18000ftの千切れ雲あり
20日の 2000時(UTC)から
北/北東の風 12kt
視程: 10km
高度11000ftの雲は散在している
高度22000ftの千切れ雲あり
21日の 0100時(UTC)から
の風 11kt
視程: 10km
高度11000ftの雲はほとんどない
高度22000ftの雲は散在している
21日の 0300時(UTC)から
南/南東の風 8kt
視程: 10km
高度22000ftの雲はほとんどない
21日の 1700時(UTC)から
の風 8kt
視程: 10km
高度22000ftの雲はほとんどない

TAF: KDEN 201414Z 2014/2118 27009KT P6SM FEW120 BKN180 FM201600 35008KT P6SM FEW120 BKN180 FM202000 03012KT P6SM SCT110 BKN220 FM210100 09011KT P6SM FEW110 SCT220 FM210300 16008KT P6SM FEW220 FM211700 08008KT P6SM FEW220

4,000以上の空港の気象観測と天気予報(METAR報とTAF報)

利用可能な観測所は地図上に黄色い丸と赤い丸で示す。

丸の上にカーソルを重ねると観測所名を参照できる。

次にクリックすると気象観測と天気予報を参照できる。

マップの切り替え:黒色「×」印の緑ボタンをクリックして拡大、「-」印の緑ボタンをクリックして縮小、緑色の三角印をクリックして隣りの地図に切り替え


METAR-TAF: